Time;durP1;ratioP1;P1;durP2;ratioP2;P2;SDS_P1;SDS_P2;PMS_P1;PMS_P2;Temp;Humidity;BMP_temperature;BMP_pressure;BME280_temperature;BME280_humidity;BME280_pressure;Samples;Min_cycle;Max_cycle;Signal;HPM_P1;HPM_P2
2021/05/07 00:01:29;;;;;;;2.23;1.20;;;9.00;99.90;;;;;;5093180;28;20525;-66
2021/05/07 00:03:55;;;;;;;2.17;1.27;;;9.00;99.90;;;;;;5093157;28;20462;-66
2021/05/07 00:06:22;;;;;;;1.77;1.10;;;9.00;99.90;;;;;;5093444;28;20920;-66
2021/05/07 00:08:48;;;;;;;2.10;1.40;;;9.00;99.90;;;;;;5093463;28;20500;-66
2021/05/07 00:11:18;;;;;;;2.33;1.30;;;9.00;99.90;;;;;;5093590;28;20446;-66
2021/05/07 00:13:45;;;;;;;2.03;1.13;;;9.00;99.90;;;;;;5093905;28;20482;-66
2021/05/07 00:16:12;;;;;;;1.80;1.13;;;9.00;99.90;;;;;;5093730;28;20635;-66
2021/05/07 00:18:38;;;;;;;2.10;1.30;;;9.00;99.90;;;;;;5093620;28;20529;-67
2021/05/07 00:21:05;;;;;;;1.77;1.13;;;8.90;99.90;;;;;;5093459;28;20442;-68
2021/05/07 00:23:33;;;;;;;1.63;0.90;;;8.90;99.90;;;;;;5093450;28;20552;-66
2021/05/07 00:26:00;;;;;;;1.93;1.00;;;9.00;99.90;;;;;;5093544;28;20438;-66
2021/05/07 00:28:27;;;;;;;1.97;0.90;;;9.00;99.90;;;;;;5093578;28;20470;-66
2021/05/07 00:30:53;;;;;;;1.83;0.93;;;8.90;99.90;;;;;;5093307;28;20529;-66
2021/05/07 00:33:20;;;;;;;1.80;1.23;;;8.90;99.90;;;;;;5093398;28;20572;-66
2021/05/07 00:35:46;;;;;;;2.13;1.00;;;8.90;99.90;;;;;;5092882;28;20441;-66
2021/05/07 00:38:14;;;;;;;2.00;1.20;;;9.00;99.90;;;;;;5093481;28;20445;-66
2021/05/07 00:40:40;;;;;;;2.07;0.90;;;8.90;99.90;;;;;;5092943;28;20840;-66
2021/05/07 00:43:06;;;;;;;2.53;1.10;;;8.90;99.90;;;;;;5092933;28;20466;-66
2021/05/07 00:45:34;;;;;;;2.20;1.30;;;8.90;99.90;;;;;;5092850;28;20446;-67
2021/05/07 00:48:02;;;;;;;1.70;1.00;;;8.90;99.90;;;;;;5092964;28;20510;-66
2021/05/07 00:50:29;;;;;;;1.87;1.00;;;8.80;99.90;;;;;;5092933;28;20446;-67
2021/05/07 00:52:58;;;;;;;1.90;1.03;;;8.80;99.90;;;;;;5092802;28;20438;-66
2021/05/07 00:55:25;;;;;;;1.90;0.90;;;8.80;99.90;;;;;;5093011;28;20854;-67
2021/05/07 00:57:51;;;;;;;2.07;1.00;;;8.80;99.90;;;;;;5092689;28;20449;-67
2021/05/07 01:00:19;;;;;;;2.13;1.17;;;8.80;99.90;;;;;;5093059;28;20442;-67
2021/05/07 01:02:46;;;;;;;3.70;1.20;;;8.80;99.90;;;;;;5092822;28;21216;-67
2021/05/07 01:05:13;;;;;;;1.97;1.20;;;8.70;99.90;;;;;;5092280;28;20470;-67
2021/05/07 01:07:40;;;;;;;1.83;0.93;;;8.70;99.90;;;;;;5092870;28;20484;-67
2021/05/07 01:10:08;;;;;;;1.70;0.90;;;8.70;99.90;;;;;;5092510;28;20981;-67
2021/05/07 01:12:36;;;;;;;4.10;1.40;;;8.70;99.90;;;;;;5092363;28;20545;-67
2021/05/07 01:15:08;;;;;;;1.70;1.00;;;8.70;99.90;;;;;;5092546;28;20486;-67
2021/05/07 01:17:38;;;;;;;1.60;1.00;;;8.60;99.90;;;;;;5092239;28;20447;-67
2021/05/07 01:20:12;;;;;;;2.00;0.97;;;8.50;99.90;;;;;;5092529;28;20446;-67
2021/05/07 01:22:39;;;;;;;1.73;1.17;;;8.40;99.90;;;;;;5092096;28;20487;-67
2021/05/07 01:25:07;;;;;;;2.10;1.23;;;8.40;99.90;;;;;;5091747;28;20462;-67
2021/05/07 01:27:37;;;;;;;2.40;1.23;;;8.30;99.90;;;;;;5092518;28;20812;-67
2021/05/07 01:30:09;;;;;;;2.40;1.60;;;8.20;99.90;;;;;;5092077;28;20446;-68
2021/05/07 01:32:36;;;;;;;2.20;1.30;;;8.10;99.90;;;;;;5092178;28;20450;-68
2021/05/07 01:35:04;;;;;;;2.03;1.00;;;8.00;99.90;;;;;;5091378;28;20486;-68
2021/05/07 01:37:32;;;;;;;2.23;1.30;;;7.90;99.90;;;;;;5091908;28;20470;-67
2021/05/07 01:39:58;;;;;;;2.10;1.20;;;7.80;99.90;;;;;;5092298;28;20438;-68
2021/05/07 01:42:24;;;;;;;1.73;1.07;;;7.80;99.90;;;;;;5091885;28;20525;-68
2021/05/07 01:44:51;;;;;;;1.93;1.10;;;7.70;99.90;;;;;;5091621;28;20585;-68
2021/05/07 01:47:17;;;;;;;2.43;1.57;;;7.60;99.90;;;;;;5092070;28;20535;-68
2021/05/07 01:49:44;;;;;;;2.27;1.33;;;7.60;99.90;;;;;;5091620;28;20435;-68
2021/05/07 01:52:10;;;;;;;2.13;1.33;;;7.50;99.90;;;;;;5092113;28;20458;-68
2021/05/07 01:54:37;;;;;;;2.33;1.40;;;7.50;99.90;;;;;;5091970;28;20867;-68
2021/05/07 01:57:04;;;;;;;2.53;1.57;;;7.50;99.90;;;;;;5093172;28;20470;-68
2021/05/07 01:59:30;;;;;;;2.60;1.70;;;7.50;99.90;;;;;;5092553;28;20525;-68
2021/05/07 02:01:57;;;;;;;2.27;1.50;;;7.40;99.90;;;;;;5091600;28;20446;-68
2021/05/07 02:04:23;;;;;;;2.20;1.30;;;7.40;99.90;;;;;;5091432;28;20494;-68
2021/05/07 02:06:49;;;;;;;2.30;1.53;;;7.30;99.90;;;;;;5091322;28;20474;-65
2021/05/07 02:09:16;;;;;;;2.70;1.30;;;7.30;99.90;;;;;;5091674;28;20517;-66
2021/05/07 02:11:43;;;;;;;2.10;1.40;;;7.30;99.90;;;;;;5091365;28;20443;-66
2021/05/07 02:14:10;;;;;;;2.00;1.23;;;7.30;99.90;;;;;;5092068;28;20490;-66
2021/05/07 02:16:36;;;;;;;2.67;1.30;;;7.20;99.90;;;;;;5091954;28;20816;-66
2021/05/07 02:19:04;;;;;;;3.10;1.50;;;7.20;99.90;;;;;;5091706;28;20510;-66
2021/05/07 02:21:30;;;;;;;2.20;1.37;;;7.10;99.90;;;;;;5093586;28;20594;-66
2021/05/07 02:23:59;;;;;;;2.73;1.90;;;7.10;99.90;;;;;;5092006;28;20469;-66
2021/05/07 02:26:25;;;;;;;2.47;1.37;;;7.10;99.90;;;;;;5090699;28;20529;-66
2021/05/07 02:28:52;;;;;;;2.60;1.60;;;7.20;99.90;;;;;;5090728;28;20845;-66
2021/05/07 02:31:19;;;;;;;2.30;1.57;;;7.20;99.90;;;;;;5090733;28;20446;-66
2021/05/07 02:33:45;;;;;;;2.00;1.40;;;7.20;99.90;;;;;;5090446;28;20496;-66
2021/05/07 02:36:11;;;;;;;1.80;1.10;;;7.20;99.90;;;;;;5090380;28;20537;-66
2021/05/07 02:38:40;;;;;;;2.77;1.57;;;7.20;99.90;;;;;;5090442;28;20533;-66
2021/05/07 02:41:06;;;;;;;2.97;1.90;;;7.20;99.90;;;;;;5090409;28;20446;-67
2021/05/07 02:43:33;;;;;;;2.90;1.87;;;7.20;99.90;;;;;;5090385;28;20493;-67
2021/05/07 02:46:00;;;;;;;4.27;1.67;;;7.20;99.90;;;;;;5090058;28;21033;-67
2021/05/07 02:48:26;;;;;;;4.07;2.03;;;7.20;99.90;;;;;;5090218;28;20529;-67
2021/05/07 02:50:53;;;;;;;2.80;1.50;;;7.20;99.90;;;;;;5090468;28;20478;-66
2021/05/07 02:53:19;;;;;;;2.63;1.73;;;7.30;99.90;;;;;;5090206;28;20569;-66
2021/05/07 02:55:45;;;;;;;2.97;2.10;;;7.20;99.90;;;;;;5090060;28;20590;-66
2021/05/07 02:58:12;;;;;;;2.80;1.77;;;7.20;99.90;;;;;;5090411;28;20466;-66
2021/05/07 03:00:38;;;;;;;2.73;1.83;;;7.20;99.90;;;;;;5090261;28;20525;-66
2021/05/07 03:03:05;;;;;;;3.13;2.03;;;7.30;99.90;;;;;;5090497;28;20528;-66
2021/05/07 03:05:32;;;;;;;2.53;1.83;;;7.30;99.90;;;;;;5090246;28;20518;-66
2021/05/07 03:07:58;;;;;;;2.77;1.77;;;7.30;99.90;;;;;;5090306;28;20464;-67
2021/05/07 03:10:24;;;;;;;2.30;1.33;;;7.30;99.90;;;;;;5090391;28;20541;-67
2021/05/07 03:12:51;;;;;;;2.97;1.70;;;7.30;99.90;;;;;;5090467;28;20873;-67
2021/05/07 03:15:17;;;;;;;4.90;1.60;;;7.30;99.90;;;;;;5089766;28;20482;-67
2021/05/07 03:17:44;;;;;;;2.67;1.97;;;7.30;99.90;;;;;;5089981;28;20449;-67
2021/05/07 03:20:13;;;;;;;3.23;1.97;;;7.30;99.90;;;;;;5090172;28;20473;-67
2021/05/07 03:22:39;;;;;;;2.50;1.80;;;7.30;99.90;;;;;;5090367;28;20499;-67
2021/05/07 03:25:06;;;;;;;2.40;1.80;;;7.30;99.90;;;;;;5089866;28;20466;-67
2021/05/07 03:27:33;;;;;;;2.70;1.60;;;7.30;99.90;;;;;;5090323;28;20529;-67
2021/05/07 03:29:59;;;;;;;2.60;1.70;;;7.30;99.90;;;;;;5093235;28;20531;-67
2021/05/07 03:32:25;;;;;;;2.30;1.77;;;7.30;99.90;;;;;;5094480;28;20502;-68
2021/05/07 03:34:52;;;;;;;3.50;1.67;;;7.30;99.90;;;;;;5093626;28;20490;-68
2021/05/07 03:37:19;;;;;;;4.10;3.00;;;7.20;99.90;;;;;;5094025;28;20450;-68
2021/05/07 03:39:45;;;;;;;5.20;2.20;;;7.20;99.90;;;;;;5093979;28;20971;-68
2021/05/07 03:42:12;;;;;;;3.77;2.30;;;7.20;99.90;;;;;;5093886;28;20442;-68
2021/05/07 03:44:38;;;;;;;3.53;3.07;;;7.20;99.90;;;;;;5093382;28;20498;-68
2021/05/07 03:47:05;;;;;;;4.17;2.20;;;7.20;99.90;;;;;;5093952;28;20528;-69
2021/05/07 03:49:31;;;;;;;3.33;2.60;;;7.10;99.90;;;;;;5093886;28;20477;-68
2021/05/07 03:51:57;;;;;;;4.17;2.90;;;7.10;99.90;;;;;;5093766;28;20450;-68
2021/05/07 03:54:25;;;;;;;4.03;3.30;;;7.10;99.90;;;;;;5093309;28;20481;-68
2021/05/07 03:56:51;;;;;;;4.13;3.60;;;7.10;99.90;;;;;;5093649;28;20500;-66
2021/05/07 03:59:17;;;;;;;4.40;3.53;;;7.10;99.90;;;;;;5093526;28;20571;-68
2021/05/07 04:01:44;;;;;;;4.50;3.37;;;7.10;99.90;;;;;;5093547;28;20554;-66
2021/05/07 04:04:10;;;;;;;4.60;3.57;;;7.10;99.90;;;;;;5093214;28;20508;-67
2021/05/07 04:06:36;;;;;;;4.80;3.50;;;7.10;99.90;;;;;;5093413;28;20445;-66
2021/05/07 04:09:07;;;;;;;4.33;3.50;;;7.10;99.90;;;;;;5093225;28;20478;-67
2021/05/07 04:11:38;;;;;;;5.80;4.00;;;7.00;99.90;;;;;;5092966;28;20442;-67
2021/05/07 04:14:04;;;;;;;4.30;3.50;;;7.00;99.90;;;;;;5093029;28;20916;-66
2021/05/07 04:16:31;;;;;;;4.20;3.70;;;7.00;99.90;;;;;;5093038;28;20905;-67
2021/05/07 04:18:57;;;;;;;7.00;3.83;;;7.00;99.90;;;;;;5093289;28;20446;-66
2021/05/07 04:21:24;;;;;;;4.70;4.20;;;7.00;99.90;;;;;;5092981;28;20760;-68
2021/05/07 04:23:50;;;;;;;4.90;3.90;;;7.00;99.90;;;;;;5092872;28;20591;-67
2021/05/07 04:26:17;;;;;;;10.13;5.60;;;7.00;99.90;;;;;;5092814;28;20442;-68
2021/05/07 04:28:44;;;;;;;4.57;4.10;;;7.00;99.90;;;;;;5093027;28;20497;-67
2021/05/07 04:31:11;;;;;;;5.40;4.30;;;7.00;99.90;;;;;;5093028;28;20452;-68
2021/05/07 04:33:37;;;;;;;4.60;3.97;;;7.00;99.90;;;;;;5092575;28;20539;-68
2021/05/07 04:36:04;;;;;;;4.90;4.10;;;7.10;99.90;;;;;;5092477;28;21376;-68
2021/05/07 04:38:31;;;;;;;5.73;4.50;;;7.00;99.90;;;;;;5117243;27;20452;-68
2021/05/07 04:40:57;;;;;;;6.13;5.07;;;7.00;99.90;;;;;;5130170;27;20863;-68
2021/05/07 04:43:24;;;;;;;5.90;4.90;;;7.00;99.90;;;;;;5113196;28;20460;-67
2021/05/07 04:45:51;;;;;;;5.93;5.20;;;7.00;99.90;;;;;;5112958;28;20583;-68
2021/05/07 04:48:17;;;;;;;6.13;5.53;;;7.00;99.90;;;;;;5113292;28;20527;-67
2021/05/07 04:50:44;;;;;;;7.30;5.47;;;7.00;99.90;;;;;;5112848;28;20449;-68
2021/05/07 04:53:10;;;;;;;6.00;4.57;;;6.90;99.90;;;;;;5112670;28;20528;-68
2021/05/07 04:55:37;;;;;;;5.43;4.80;;;6.90;99.90;;;;;;5112550;27;20479;-68
2021/05/07 04:58:04;;;;;;;4.90;4.40;;;6.80;99.90;;;;;;5113259;27;20441;-67
2021/05/07 05:00:30;;;;;;;5.53;4.53;;;6.80;99.90;;;;;;5117723;27;20472;-68
2021/05/07 05:02:57;;;;;;;4.47;3.70;;;6.80;99.90;;;;;;5132993;27;20440;-68
2021/05/07 05:05:24;;;;;;;4.57;3.63;;;6.80;99.90;;;;;;5132923;27;20443;-68
2021/05/07 05:07:52;;;;;;;5.80;3.63;;;6.80;99.90;;;;;;5117096;27;20472;-68
2021/05/07 05:10:18;;;;;;;5.10;3.60;;;6.80;99.90;;;;;;5107967;28;21040;-68
2021/05/07 05:12:45;;;;;;;4.00;3.30;;;6.80;99.90;;;;;;5108747;27;20476;-71
2021/05/07 05:15:13;;;;;;;4.63;3.70;;;6.80;99.90;;;;;;5112194;27;20895;-70
2021/05/07 05:17:39;;;;;;;7.13;3.50;;;6.80;99.90;;;;;;5128291;27;20441;-68
2021/05/07 05:20:08;;;;;;;4.30;3.90;;;6.70;99.90;;;;;;5117072;27;20505;-68
2021/05/07 05:22:35;;;;;;;6.60;4.40;;;6.70;99.90;;;;;;5108980;28;20602;-67
2021/05/07 05:25:04;;;;;;;4.67;4.23;;;6.70;99.90;;;;;;5109693;28;20453;-68
2021/05/07 05:27:31;;;;;;;6.27;4.70;;;6.70;99.90;;;;;;5108451;28;20955;-68
2021/05/07 05:29:58;;;;;;;5.13;4.53;;;6.70;99.90;;;;;;5110713;28;20536;-68
2021/05/07 05:32:24;;;;;;;11.80;4.13;;;6.70;99.90;;;;;;5110778;28;20453;-67
2021/05/07 05:34:51;;;;;;;8.80;5.37;;;6.80;99.90;;;;;;5111001;28;20480;-66
2021/05/07 05:37:18;;;;;;;6.10;4.80;;;6.80;99.90;;;;;;5105664;28;20446;-67
2021/05/07 05:39:44;;;;;;;4.87;4.23;;;6.80;99.90;;;;;;5109924;28;20524;-68
2021/05/07 05:42:11;;;;;;;5.30;4.40;;;6.80;99.90;;;;;;5109749;28;20524;-67
2021/05/07 05:44:37;;;;;;;6.10;4.50;;;6.80;99.90;;;;;;5109100;28;20458;-67
2021/05/07 05:47:04;;;;;;;6.70;5.07;;;6.80;99.90;;;;;;5111979;27;20532;-67
2021/05/07 05:49:30;;;;;;;6.33;4.50;;;6.80;99.90;;;;;;5109061;28;20454;-67
2021/05/07 05:51:56;;;;;;;5.63;4.40;;;6.80;99.90;;;;;;5108270;28;20552;-68
2021/05/07 05:54:24;;;;;;;5.50;3.57;;;6.90;99.90;;;;;;5109088;28;20488;-68
2021/05/07 05:56:50;;;;;;;5.70;4.90;;;6.90;99.90;;;;;;5109743;28;20445;-68
2021/05/07 05:59:17;;;;;;;7.20;4.80;;;6.90;99.90;;;;;;5109356;28;20468;-68
2021/05/07 06:01:43;;;;;;;8.30;5.40;;;6.90;99.90;;;;;;5108252;28;20445;-67
2021/05/07 06:04:10;;;;;;;7.43;5.30;;;6.80;99.90;;;;;;5105618;28;21019;-67
2021/05/07 06:06:36;;;;;;;6.30;5.10;;;6.90;99.90;;;;;;5103078;28;20595;-67
2021/05/07 06:09:03;;;;;;;7.90;5.90;;;6.90;99.90;;;;;;5108299;27;20521;-66
2021/05/07 06:11:31;;;;;;;8.53;6.07;;;6.80;99.90;;;;;;5108122;28;20441;-67
2021/05/07 06:13:57;;;;;;;8.07;6.87;;;6.90;99.90;;;;;;5107509;28;20843;-67
2021/05/07 06:16:24;;;;;;;7.80;6.17;;;6.90;99.90;;;;;;5107214;28;20552;-67
2021/05/07 06:18:50;;;;;;;8.50;7.07;;;6.90;99.90;;;;;;5108078;28;21102;-67
2021/05/07 06:21:16;;;;;;;8.83;6.93;;;6.90;99.90;;;;;;5108221;28;20488;-68
2021/05/07 06:23:43;;;;;;;7.80;6.33;;;6.90;99.90;;;;;;5107957;28;20562;-68
2021/05/07 06:26:09;;;;;;;9.53;6.93;;;6.90;99.90;;;;;;5106508;28;20442;-68
2021/05/07 06:28:36;;;;;;;8.80;7.03;;;7.00;99.90;;;;;;5107819;28;20449;-67
2021/05/07 06:31:03;;;;;;;8.23;6.63;;;7.00;99.90;;;;;;5108079;28;20448;-67
2021/05/07 06:33:29;;;;;;;9.30;6.50;;;7.10;99.90;;;;;;5107268;28;20548;-67
2021/05/07 06:35:55;;;;;;;8.97;6.47;;;7.10;99.90;;;;;;5106841;28;20543;-67
2021/05/07 06:38:22;;;;;;;8.33;7.53;;;7.20;99.90;;;;;;5107724;28;20484;-68
2021/05/07 06:40:50;;;;;;;7.97;7.17;;;7.30;99.90;;;;;;5107570;28;20506;-67
2021/05/07 06:43:16;;;;;;;9.00;8.10;;;7.40;99.90;;;;;;5108002;28;20453;-68
2021/05/07 06:45:44;;;;;;;9.00;7.37;;;7.40;99.90;;;;;;5106646;28;20506;-68
2021/05/07 06:48:10;;;;;;;10.00;8.20;;;7.30;99.90;;;;;;5113155;27;20491;-68
2021/05/07 06:50:36;;;;;;;8.97;7.50;;;7.30;99.90;;;;;;5109898;28;20459;-67
2021/05/07 06:53:03;;;;;;;11.33;8.40;;;7.30;99.90;;;;;;5127625;27;20803;-67
2021/05/07 06:55:29;;;;;;;10.03;7.87;;;7.30;99.90;;;;;;5126327;27;20518;-67
2021/05/07 06:57:56;;;;;;;10.40;8.30;;;7.30;99.90;;;;;;5128506;27;20912;-68
2021/05/07 07:00:22;;;;;;;11.57;8.27;;;7.30;99.90;;;;;;5128530;27;20447;-68
2021/05/07 07:02:50;;;;;;;8.03;6.60;;;7.30;99.90;;;;;;5129222;27;20479;-68
2021/05/07 07:05:16;;;;;;;8.00;6.90;;;7.30;99.90;;;;;;5126763;27;20455;-68
2021/05/07 07:07:42;;;;;;;8.17;7.37;;;7.30;99.90;;;;;;5128114;27;20490;-68
2021/05/07 07:10:10;;;;;;;9.63;7.90;;;7.30;99.90;;;;;;5128408;27;20471;-68
2021/05/07 07:12:36;;;;;;;8.27;7.17;;;7.30;99.90;;;;;;5128025;27;20436;-68
2021/05/07 07:15:03;;;;;;;9.90;7.53;;;7.30;99.90;;;;;;5126846;27;20567;-68
2021/05/07 07:17:30;;;;;;;11.50;9.00;;;7.40;99.90;;;;;;5128381;27;20863;-68
2021/05/07 07:19:57;;;;;;;8.07;7.27;;;7.40;99.90;;;;;;5128098;27;20455;-68
2021/05/07 07:22:24;;;;;;;7.97;7.13;;;7.40;99.90;;;;;;5128135;27;20452;-68
2021/05/07 07:24:50;;;;;;;8.47;7.57;;;7.50;99.90;;;;;;5127014;27;20465;-68
2021/05/07 07:27:17;;;;;;;10.57;7.53;;;7.50;99.90;;;;;;5127706;27;20519;-68
2021/05/07 07:29:45;;;;;;;8.93;8.03;;;7.60;99.90;;;;;;5127708;27;20456;-68
2021/05/07 07:32:11;;;;;;;12.03;9.53;;;7.70;99.90;;;;;;5127821;27;20436;-68
2021/05/07 07:34:38;;;;;;;10.60;7.90;;;7.80;99.90;;;;;;5127146;27;20540;-68
2021/05/07 07:37:05;;;;;;;9.20;8.20;;;8.00;99.90;;;;;;5127165;27;20444;-68
2021/05/07 07:39:31;;;;;;;8.67;7.77;;;8.20;99.90;;;;;;5128200;27;20476;-68
2021/05/07 07:41:58;;;;;;;9.10;8.00;;;8.20;99.90;;;;;;5127594;27;21136;-68
2021/05/07 07:44:24;;;;;;;8.87;7.10;;;8.10;99.90;;;;;;5126859;27;20548;-67
2021/05/07 07:46:51;;;;;;;8.27;7.43;;;8.00;99.90;;;;;;5127768;27;20531;-68
2021/05/07 07:49:17;;;;;;;8.87;6.87;;;7.80;99.90;;;;;;5127773;27;20500;-67
2021/05/07 07:51:43;;;;;;;9.43;7.40;;;7.80;99.90;;;;;;5127365;27;20456;-68
2021/05/07 07:54:12;;;;;;;7.97;7.17;;;7.80;99.90;;;;;;5127031;27;20512;-68
2021/05/07 07:56:40;;;;;;;8.60;7.10;;;7.80;99.90;;;;;;5127439;27;20448;-68
2021/05/07 07:59:06;;;;;;;10.93;8.00;;;7.90;99.90;;;;;;5127949;27;20539;-68
2021/05/07 08:01:32;;;;;;;7.87;7.03;;;8.00;99.90;;;;;;5127706;27;20472;-68
2021/05/07 08:03:59;;;;;;;7.63;6.83;;;8.00;99.90;;;;;;5127342;27;20499;-68
2021/05/07 08:06:26;;;;;;;8.20;7.40;;;8.10;99.90;;;;;;5127296;27;20448;-68
2021/05/07 08:08:52;;;;;;;8.73;6.93;;;8.20;99.90;;;;;;5127802;27;20453;-68
2021/05/07 08:11:20;;;;;;;9.70;7.87;;;8.40;99.90;;;;;;5127309;27;21005;-67
2021/05/07 08:13:46;;;;;;;8.27;6.73;;;8.50;99.90;;;;;;5127845;27;20475;-68
2021/05/07 08:16:12;;;;;;;7.60;6.27;;;8.50;99.90;;;;;;5127980;27;20939;-68
2021/05/07 08:18:41;;;;;;;7.17;6.47;;;8.60;99.90;;;;;;5131225;27;20439;-68
2021/05/07 08:21:07;;;;;;;7.87;6.20;;;8.80;99.90;;;;;;5131070;27;20451;-67
2021/05/07 08:23:34;;;;;;;8.03;5.73;;;8.90;99.90;;;;;;5130539;27;20464;-67
2021/05/07 08:26:01;;;;;;;7.70;6.67;;;8.90;99.90;;;;;;5130105;27;20478;-68
2021/05/07 08:28:28;;;;;;;7.47;6.77;;;9.00;99.90;;;;;;5132133;27;20446;-68
2021/05/07 08:30:55;;;;;;;6.67;6.07;;;9.10;99.90;;;;;;5131668;27;20527;-68
2021/05/07 08:33:21;;;;;;;6.90;6.20;;;9.30;99.90;;;;;;5131723;27;20552;-68
2021/05/07 08:35:47;;;;;;;8.43;6.80;;;9.10;99.90;;;;;;5127493;27;20518;-67
2021/05/07 08:38:14;;;;;;;7.73;7.00;;;9.10;99.90;;;;;;5100219;27;20541;-68
2021/05/07 08:40:40;;;;;;;7.77;6.97;;;9.20;99.90;;;;;;5107860;28;20944;-67
2021/05/07 08:43:08;;;;;;;7.83;6.30;;;9.30;99.90;;;;;;5109661;28;20525;-68
2021/05/07 08:45:36;;;;;;;8.13;6.10;;;9.30;99.90;;;;;;5109011;28;20453;-67
2021/05/07 08:48:02;;;;;;;7.23;6.53;;;9.50;99.90;;;;;;5109728;28;20536;-67
2021/05/07 08:50:29;;;;;;;8.33;6.03;;;9.60;99.90;;;;;;5109827;28;20480;-68
2021/05/07 08:52:55;;;;;;;6.67;6.00;;;9.80;99.90;;;;;;5109574;28;20490;-67
2021/05/07 08:55:21;;;;;;;6.80;6.10;;;9.90;99.90;;;;;;5108702;28;20541;-67
2021/05/07 08:57:48;;;;;;;5.73;5.13;;;10.00;99.90;;;;;;5109948;28;20555;-67
2021/05/07 09:00:15;;;;;;;6.73;5.80;;;10.30;99.90;;;;;;5109455;28;20441;-68
2021/05/07 09:02:43;;;;;;;6.50;5.90;;;10.70;99.90;;;;;;5109144;28;20442;-68
2021/05/07 09:05:10;;;;;;;9.13;7.10;;;10.30;99.90;;;;;;5108836;27;20552;-68
2021/05/07 09:07:36;;;;;;;8.00;6.60;;;10.00;99.90;;;;;;5109635;28;20449;-68
2021/05/07 09:10:04;;;;;;;8.00;5.83;;;9.70;99.90;;;;;;5109617;28;20541;-68
2021/05/07 09:12:32;;;;;;;6.60;5.77;;;10.00;99.90;;;;;;5109309;28;20445;-68
2021/05/07 09:15:00;;;;;;;7.03;5.27;;;10.50;99.90;;;;;;5108368;28;21053;-68
2021/05/07 09:17:28;;;;;;;9.90;6.50;;;10.70;99.90;;;;;;5109467;28;20984;-68
2021/05/07 09:20:08;;;;;;;6.00;5.40;;;10.60;99.90;;;;;;5109453;28;20453;-66
2021/05/07 09:22:36;;;;;;;5.87;4.97;;;10.30;99.90;;;;;;5109436;28;20532;-68
2021/05/07 09:25:05;;;;;;;6.77;5.53;;;10.00;99.90;;;;;;5107945;28;20553;-68
2021/05/07 09:27:31;;;;;;;6.27;5.53;;;9.70;99.90;;;;;;5109132;28;20445;-68
2021/05/07 09:29:58;;;;;;;5.90;5.30;;;9.70;99.90;;;;;;5109222;28;20444;-68
2021/05/07 09:32:31;;;;;;;6.30;5.70;;;9.90;99.90;;;;;;5108548;28;20442;-68
2021/05/07 09:35:11;;;;;;;6.23;5.30;;;10.40;99.90;;;;;;5107980;28;20564;-68
2021/05/07 09:37:40;;;;;;;6.13;5.20;;;10.60;99.90;;;;;;5109392;28;20527;-68
2021/05/07 09:40:12;;;;;;;5.70;4.80;;;10.40;99.90;;;;;;5109603;27;20479;-68
2021/05/07 09:42:38;;;;;;;6.93;5.30;;;10.10;99.90;;;;;;5110227;27;20522;-68
2021/05/07 09:45:06;;;;;;;6.53;5.17;;;10.10;99.90;;;;;;5107650;28;20449;-68
2021/05/07 09:47:32;;;;;;;4.50;4.10;;;10.70;99.90;;;;;;5108872;28;20498;-68
2021/05/07 09:50:03;;;;;;;5.10;4.37;;;11.20;99.90;;;;;;5109140;27;21051;-68
2021/05/07 09:52:31;;;;;;;6.90;4.23;;;10.80;99.90;;;;;;5108469;28;21006;-68
2021/05/07 09:54:57;;;;;;;5.30;4.70;;;10.30;99.90;;;;;;5107362;28;20485;-67
2021/05/07 09:57:24;;;;;;;4.93;4.10;;;10.20;99.90;;;;;;5108591;28;20991;-68
2021/05/07 09:59:52;;;;;;;4.57;3.90;;;10.80;99.90;;;;;;5108871;28;20445;-68
2021/05/07 10:02:18;;;;;;;5.40;3.90;;;11.70;99.90;;;;;;5108998;28;20488;-68
2021/05/07 10:04:45;;;;;;;4.93;3.97;;;12.30;99.90;;;;;;5111941;27;20575;-68
2021/05/07 10:07:11;;;;;;;7.10;4.83;;;12.60;99.90;;;;;;5108306;28;20452;-68
2021/05/07 10:09:39;;;;;;;4.93;4.43;;;12.80;96.40;;;;;;5111990;27;20498;-67
2021/05/07 10:12:07;;;;;;;4.90;4.13;;;12.50;98.30;;;;;;5113941;27;21124;-68
2021/05/07 10:14:41;;;;;;;4.10;3.60;;;12.20;99.90;;;;;;5107252;28;20505;-66
2021/05/07 10:17:09;;;;;;;4.93;4.37;;;11.90;98.90;;;;;;5109647;28;20544;-66
2021/05/07 10:19:41;;;;;;;3.80;3.10;;;12.10;98.30;;;;;;5108788;28;20445;-67
2021/05/07 10:22:10;;;;;;;3.90;3.00;;;12.60;98.10;;;;;;5108830;28;20498;-68
2021/05/07 10:24:39;;;;;;;3.90;3.40;;;13.30;96.80;;;;;;5108490;28;20465;-68
2021/05/07 10:27:17;;;;;;;3.60;3.30;;;12.30;94.30;;;;;;5109061;28;20549;-67
2021/05/07 10:29:57;;;;;;;4.50;3.30;;;12.30;95.60;;;;;;5108688;28;20535;-68
2021/05/07 10:32:34;;;;;;;4.30;3.53;;;12.90;95.20;;;;;;5108776;28;20434;-68
2021/05/07 10:35:00;;;;;;;4.30;3.27;;;13.80;94.60;;;;;;5107827;28;20572;-68
2021/05/07 10:37:37;;;;;;;5.37;4.13;;;13.60;94.00;;;;;;5109432;28;20477;-68
2021/05/07 10:40:07;;;;;;;4.33;3.93;;;13.10;95.00;;;;;;5105173;27;20464;-67
2021/05/07 10:42:33;;;;;;;3.83;3.43;;;12.50;91.60;;;;;;5100292;27;20528;-68
2021/05/07 10:45:04;;;;;;;4.27;3.30;;;11.70;93.40;;;;;;5108136;28;20634;-68
2021/05/07 10:47:35;;;;;;;3.60;3.23;;;11.30;95.80;;;;;;5108612;27;21053;-68
2021/05/07 10:50:13;;;;;;;4.40;3.07;;;11.30;94.90;;;;;;5108545;28;20484;-68
2021/05/07 10:52:40;;;;;;;5.00;3.30;;;11.30;93.60;;;;;;5106515;28;20442;-68
2021/05/07 10:55:09;;;;;;;5.07;3.83;;;11.70;95.90;;;;;;5108137;28;20542;-69
2021/05/07 10:57:38;;;;;;;4.93;4.43;;;12.10;94.70;;;;;;5108584;28;20448;-68
2021/05/07 11:00:08;;;;;;;5.20;3.63;;;12.30;93.90;;;;;;5126064;27;20445;-69
2021/05/07 11:02:45;;;;;;;4.93;4.40;;;12.70;95.20;;;;;;5129997;28;20452;-69
2021/05/07 11:05:13;;;;;;;3.90;3.00;;;13.70;95.10;;;;;;5123428;27;20820;-69
2021/05/07 11:07:51;;;;;;;4.40;3.67;;;13.40;91.50;;;;;;5102897;28;20456;-68
2021/05/07 11:10:29;;;;;;;5.67;4.07;;;12.60;92.40;;;;;;5103816;28;21009;-69
2021/05/07 11:12:56;;;;;;;7.00;3.90;;;12.80;92.00;;;;;;5102172;28;20854;-68
2021/05/07 11:15:22;;;;;;;5.17;3.53;;;12.60;91.60;;;;;;5109969;28;21019;-68
2021/05/07 11:17:59;;;;;;;5.50;3.60;;;12.70;92.10;;;;;;5109155;28;20914;-68
2021/05/07 11:20:32;;;;;;;4.50;3.83;;;13.10;92.30;;;;;;5109246;28;20440;-65
2021/05/07 11:22:59;;;;;;;4.80;3.80;;;13.40;91.20;;;;;;5109978;28;20445;-66
2021/05/07 11:25:26;;;;;;;3.53;3.23;;;13.60;90.10;;;;;;5108454;28;20521;-67
2021/05/07 11:27:52;;;;;;;3.77;3.27;;;13.90;90.50;;;;;;5110109;28;20482;-67
2021/05/07 11:30:19;;;;;;;5.27;4.13;;;13.20;89.60;;;;;;5110042;28;20430;-66
2021/05/07 11:32:46;;;;;;;6.13;3.57;;;13.50;89.00;;;;;;5097731;28;20455;-67
2021/05/07 11:35:13;;;;;;;4.40;3.23;;;13.40;88.50;;;;;;5104826;28;20477;-67
2021/05/07 11:37:42;;;;;;;3.90;3.50;;;14.20;91.70;;;;;;5102634;28;20452;-67
2021/05/07 11:40:10;;;;;;;4.23;3.83;;;14.10;87.80;;;;;;5096855;28;20511;-68
2021/05/07 11:42:39;;;;;;;3.67;3.27;;;12.90;89.30;;;;;;5104802;28;20977;-67
2021/05/07 11:45:07;;;;;;;4.77;3.10;;;12.80;89.20;;;;;;5105983;28;20537;-67
2021/05/07 11:47:35;;;;;;;5.00;3.20;;;12.70;89.00;;;;;;5103660;28;20449;-67
2021/05/07 11:50:03;;;;;;;3.10;2.80;;;12.30;88.30;;;;;;5100344;28;20526;-67
2021/05/07 11:52:34;;;;;;;3.53;2.70;;;11.90;85.70;;;;;;5104455;28;20472;-67
2021/05/07 11:55:00;;;;;;;3.63;3.33;;;11.90;87.60;;;;;;5097629;28;20592;-67
2021/05/07 11:57:30;;;;;;;3.43;3.00;;;11.90;88.70;;;;;;5100915;28;20524;-67
2021/05/07 11:59:58;;;;;;;4.03;3.47;;;12.20;89.10;;;;;;5104518;28;20478;-66
2021/05/07 12:02:26;;;;;;;3.80;3.07;;;12.40;91.10;;;;;;5098215;28;20478;-68
2021/05/07 12:04:53;;;;;;;4.80;3.27;;;12.30;90.00;;;;;;5099444;28;20461;-68
2021/05/07 12:07:24;;;;;;;3.70;2.80;;;12.30;90.50;;;;;;5109889;28;20442;-66
2021/05/07 12:09:51;;;;;;;4.60;3.70;;;12.80;90.00;;;;;;5113840;28;20530;-67
2021/05/07 12:12:17;;;;;;;3.70;2.87;;;12.70;86.50;;;;;;5113508;28;20469;-67
2021/05/07 12:14:48;;;;;;;4.13;2.80;;;13.20;87.40;;;;;;5113215;28;20556;-67
2021/05/07 12:17:19;;;;;;;3.73;2.80;;;14.10;85.90;;;;;;5113926;28;20445;-68
2021/05/07 12:19:57;;;;;;;3.87;3.20;;;13.50;78.60;;;;;;5110793;28;20436;-68
2021/05/07 12:22:24;;;;;;;4.87;3.03;;;12.70;81.10;;;;;;5100521;28;20442;-69
2021/05/07 12:24:50;;;;;;;4.63;3.37;;;12.30;85.90;;;;;;5107277;28;20568;-68
2021/05/07 12:27:26;;;;;;;4.53;3.17;;;12.20;85.40;;;;;;5105911;28;20517;-68
2021/05/07 12:29:53;;;;;;;3.27;2.60;;;12.20;87.40;;;;;;5103867;28;20441;-68
2021/05/07 12:32:22;;;;;;;3.10;2.80;;;11.90;88.20;;;;;;5099513;28;20572;-68
2021/05/07 12:34:57;;;;;;;4.70;3.40;;;11.70;87.20;;;;;;5103499;28;20486;-69
2021/05/07 12:37:23;;;;;;;6.07;2.67;;;11.40;90.40;;;;;;5103578;28;20540;-67
2021/05/07 12:39:49;;;;;;;5.20;3.60;;;11.40;91.40;;;;;;5103560;28;20445;-67
2021/05/07 12:42:16;;;;;;;3.60;3.13;;;11.30;92.20;;;;;;5110599;28;20524;-69
2021/05/07 12:44:42;;;;;;;4.97;3.67;;;11.00;93.30;;;;;;5100742;28;20471;-67
2021/05/07 12:47:09;;;;;;;4.53;3.40;;;10.70;93.80;;;;;;5096168;28;20537;-67
2021/05/07 12:49:37;;;;;;;6.27;4.13;;;10.70;95.50;;;;;;5093870;28;20540;-68
2021/05/07 12:52:03;;;;;;;7.30;3.57;;;11.20;95.20;;;;;;5094650;28;20951;-68
2021/05/07 12:54:30;;;;;;;7.80;3.87;;;12.60;94.00;;;;;;5098017;28;20485;-68